sensor_id;sensor_type;location;lat;lon;timestamp;pressure;altitude;pressure_sealevel;temperature;humidity
51496;BME280;37572;52.094;4.870;2023-04-24T00:00:32;99887.69;;;13.63;61.45
51496;BME280;37572;52.094;4.870;2023-04-24T00:02:57;99887.88;;;13.62;61.30
51496;BME280;37572;52.094;4.870;2023-04-24T00:05:23;99890.13;;;13.58;61.33
51496;BME280;37572;52.094;4.870;2023-04-24T00:07:49;99885.78;;;13.57;61.50
51496;BME280;37572;52.094;4.870;2023-04-24T00:10:17;99893.00;;;13.57;61.22
51496;BME280;37572;52.094;4.870;2023-04-24T00:12:43;99898.53;;;13.55;61.47
51496;BME280;37572;52.094;4.870;2023-04-24T00:15:08;99898.53;;;13.55;61.48
51496;BME280;37572;52.094;4.870;2023-04-24T00:17:34;99893.19;;;13.55;61.50
51496;BME280;37572;52.094;4.870;2023-04-24T00:19:59;99900.22;;;13.56;61.42
51496;BME280;37572;52.094;4.870;2023-04-24T00:22:25;99903.91;;;13.55;61.31
51496;BME280;37572;52.094;4.870;2023-04-24T00:24:51;99911.34;;;13.60;61.64
51496;BME280;37572;52.094;4.870;2023-04-24T00:27:16;99918.34;;;13.61;61.59
51496;BME280;37572;52.094;4.870;2023-04-24T00:29:42;99920.81;;;13.62;61.43
51496;BME280;37572;52.094;4.870;2023-04-24T00:32:07;99918.97;;;13.63;61.46
51496;BME280;37572;52.094;4.870;2023-04-24T00:38:14;99915.28;;;13.64;61.67
51496;BME280;37572;52.094;4.870;2023-04-24T00:40:39;99916.53;;;13.68;61.68
51496;BME280;37572;52.094;4.870;2023-04-24T00:43:05;99914.47;;;13.70;61.55
51496;BME280;37572;52.094;4.870;2023-04-24T00:45:30;99914.06;;;13.73;61.51
51496;BME280;37572;52.094;4.870;2023-04-24T00:47:56;99920.88;;;13.76;61.42
51496;BME280;37572;52.094;4.870;2023-04-24T00:50:24;99913.50;;;13.78;61.48
51496;BME280;37572;52.094;4.870;2023-04-24T00:52:49;99917.59;;;13.80;61.54
51496;BME280;37572;52.094;4.870;2023-04-24T00:55:15;99923.59;;;13.82;61.55
51496;BME280;37572;52.094;4.870;2023-04-24T00:57:41;99918.06;;;13.84;61.50
51496;BME280;37572;52.094;4.870;2023-04-24T01:00:07;99917.00;;;13.85;61.32
51496;BME280;37572;52.094;4.870;2023-04-24T01:02:36;99922.34;;;13.85;61.23
51496;BME280;37572;52.094;4.870;2023-04-24T01:05:06;99922.16;;;13.86;61.41
51496;BME280;37572;52.094;4.870;2023-04-24T01:07:34;99924.03;;;13.86;61.45
51496;BME280;37572;52.094;4.870;2023-04-24T01:09:59;99923.19;;;13.85;61.53
51496;BME280;37572;52.094;4.870;2023-04-24T01:12:25;99920.50;;;13.85;61.33
51496;BME280;37572;52.094;4.870;2023-04-24T01:14:50;99921.34;;;13.86;61.26
51496;BME280;37572;52.094;4.870;2023-04-24T01:17:15;99921.97;;;13.88;61.40
51496;BME280;37572;52.094;4.870;2023-04-24T01:19:41;99922.78;;;13.88;61.19
51496;BME280;37572;52.094;4.870;2023-04-24T01:22:14;99920.94;;;13.89;61.08
51496;BME280;37572;52.094;4.870;2023-04-24T01:24:40;99927.13;;;13.90;61.21
51496;BME280;37572;52.094;4.870;2023-04-24T01:27:06;99927.13;;;13.90;61.16
51496;BME280;37572;52.094;4.870;2023-04-24T01:29:32;99922.59;;;13.90;61.13
51496;BME280;37572;52.094;4.870;2023-04-24T01:31:58;99925.88;;;13.92;61.17
51496;BME280;37572;52.094;4.870;2023-04-24T01:34:23;99936.38;;;13.94;61.43
51496;BME280;37572;52.094;4.870;2023-04-24T01:36:49;99924.66;;;13.95;60.95
51496;BME280;37572;52.094;4.870;2023-04-24T01:39:15;99924.88;;;13.93;61.10
51496;BME280;37572;52.094;4.870;2023-04-24T01:41:41;99929.22;;;13.94;60.99
51496;BME280;37572;52.094;4.870;2023-04-24T01:44:07;99933.72;;;13.94;61.00
51496;BME280;37572;52.094;4.870;2023-04-24T01:46:32;99931.88;;;13.94;61.05
51496;BME280;37572;52.094;4.870;2023-04-24T01:49:00;99929.22;;;13.94;60.94
51496;BME280;37572;52.094;4.870;2023-04-24T01:51:25;99933.72;;;13.94;61.18
51496;BME280;37572;52.094;4.870;2023-04-24T01:53:52;99932.91;;;13.93;61.02
51496;BME280;37572;52.094;4.870;2023-04-24T01:56:22;99926.34;;;13.96;61.08
51496;BME280;37572;52.094;4.870;2023-04-24T01:58:49;99930.63;;;13.97;61.02
51496;BME280;37572;52.094;4.870;2023-04-24T02:01:18;99924.47;;;13.96;61.13
51496;BME280;37572;52.094;4.870;2023-04-24T02:03:43;99934.16;;;13.97;61.43
51496;BME280;37572;52.094;4.870;2023-04-24T02:06:08;99936.84;;;13.97;61.00
51496;BME280;37572;52.094;4.870;2023-04-24T02:08:33;99933.94;;;13.99;61.07
51496;BME280;37572;52.094;4.870;2023-04-24T02:10:59;99936.63;;;13.99;60.82
51496;BME280;37572;52.094;4.870;2023-04-24T02:13:26;99923.22;;;13.99;61.00
51496;BME280;37572;52.094;4.870;2023-04-24T02:15:51;99931.69;;;13.96;60.86
51496;BME280;37572;52.094;4.870;2023-04-24T02:18:17;99930.03;;;13.95;60.94
51496;BME280;37572;52.094;4.870;2023-04-24T02:20:42;99925.69;;;13.94;60.71
51496;BME280;37572;52.094;4.870;2023-04-24T02:23:07;99929.59;;;13.91;60.67
51496;BME280;37572;52.094;4.870;2023-04-24T02:25:33;99930.81;;;13.88;60.91
51496;BME280;37572;52.094;4.870;2023-04-24T02:27:58;99937.00;;;13.89;60.69
51496;BME280;37572;52.094;4.870;2023-04-24T02:30:23;99927.13;;;13.90;60.95
51496;BME280;37572;52.094;4.870;2023-04-24T02:32:49;99935.16;;;13.90;61.01
51496;BME280;37572;52.094;4.870;2023-04-24T02:35:14;99927.13;;;13.90;60.94
51496;BME280;37572;52.094;4.870;2023-04-24T02:37:39;99927.94;;;13.90;60.88
51496;BME280;37572;52.094;4.870;2023-04-24T02:40:05;99929.59;;;13.91;60.87
51496;BME280;37572;52.094;4.870;2023-04-24T02:42:31;99934.94;;;13.91;60.70
51496;BME280;37572;52.094;4.870;2023-04-24T02:44:56;99928.78;;;13.91;60.67
51496;BME280;37572;52.094;4.870;2023-04-24T02:47:21;99927.94;;;13.90;60.76
51496;BME280;37572;52.094;4.870;2023-04-24T02:49:47;99928.97;;;13.89;60.58
51496;BME280;37572;52.094;4.870;2023-04-24T02:52:12;99924.63;;;13.88;60.66
51496;BME280;37572;52.094;4.870;2023-04-24T02:54:38;99923.81;;;13.87;60.51
51496;BME280;37572;52.094;4.870;2023-04-24T02:57:03;99929.19;;;13.87;60.66
51496;BME280;37572;52.094;4.870;2023-04-24T02:59:28;99927.94;;;13.90;60.62
51496;BME280;37572;52.094;4.870;2023-04-24T03:01:54;99926.31;;;13.89;60.50
51496;BME280;37572;52.094;4.870;2023-04-24T03:04:19;99922.16;;;13.86;60.58
51496;BME280;37572;52.094;4.870;2023-04-24T03:06:45;99924.03;;;13.86;60.81
51496;BME280;37572;52.094;4.870;2023-04-24T03:09:10;99919.69;;;13.85;60.53
51496;BME280;37572;52.094;4.870;2023-04-24T03:11:36;99921.75;;;13.83;60.54
51496;BME280;37572;52.094;4.870;2023-04-24T03:14:01;99918.66;;;13.79;60.48
51496;BME280;37572;52.094;4.870;2023-04-24T03:16:27;99913.50;;;13.78;60.81
51496;BME280;37572;52.094;4.870;2023-04-24T03:18:52;99920.69;;;13.77;60.53
51496;BME280;37572;52.094;4.870;2023-04-24T03:21:18;99919.84;;;13.77;60.74
51496;BME280;37572;52.094;4.870;2023-04-24T03:23:43;99911.81;;;13.77;60.84
51496;BME280;37572;52.094;4.870;2023-04-24T03:26:08;99911.00;;;13.76;60.74
51496;BME280;37572;52.094;4.870;2023-04-24T03:28:34;99908.13;;;13.78;60.56
51496;BME280;37572;52.094;4.870;2023-04-24T03:30:59;99904.41;;;13.79;60.73
51496;BME280;37572;52.094;4.870;2023-04-24T03:33:25;99910.22;;;13.82;60.50
51496;BME280;37572;52.094;4.870;2023-04-24T03:35:50;99908.97;;;13.85;60.54
51496;BME280;37572;52.094;4.870;2023-04-24T03:38:15;99908.38;;;13.90;60.63
51496;BME280;37572;52.094;4.870;2023-04-24T03:40:41;99913.16;;;13.94;60.57
51496;BME280;37572;52.094;4.870;2023-04-24T03:43:06;99915.00;;;14.00;60.50
51496;BME280;37572;52.094;4.870;2023-04-24T03:45:31;99913.59;;;14.04;60.23
51496;BME280;37572;52.094;4.870;2023-04-24T03:47:56;99910.53;;;14.07;60.35
51496;BME280;37572;52.094;4.870;2023-04-24T03:50:22;99914.00;;;14.08;60.19
51496;BME280;37572;52.094;4.870;2023-04-24T03:52:47;99920.38;;;14.07;60.09
51496;BME280;37572;52.094;4.870;2023-04-24T03:55:12;99918.94;;;14.04;59.94
51496;BME280;37572;52.094;4.870;2023-04-24T03:57:40;99918.53;;;14.01;59.98
51496;BME280;37572;52.094;4.870;2023-04-24T04:00:06;99910.91;;;13.98;60.22
51496;BME280;37572;52.094;4.870;2023-04-24T04:02:31;99911.28;;;13.95;60.17
51496;BME280;37572;52.094;4.870;2023-04-24T04:04:56;99909.81;;;13.92;60.11
51496;BME280;37572;52.094;4.870;2023-04-24T04:07:22;99916.63;;;13.88;60.12
51496;BME280;37572;52.094;4.870;2023-04-24T04:09:47;99923.19;;;13.85;60.19
51496;BME280;37572;52.094;4.870;2023-04-24T04:12:12;99927.91;;;13.83;60.02
51496;BME280;37572;52.094;4.870;2023-04-24T04:14:38;99939.00;;;13.80;60.09
51496;BME280;37572;52.094;4.870;2023-04-24T04:17:03;99945.59;;;13.78;60.17
51496;BME280;37572;52.094;4.870;2023-04-24T04:19:28;99942.91;;;13.78;60.15
51496;BME280;37572;52.094;4.870;2023-04-24T04:21:53;99945.59;;;13.78;60.05
51496;BME280;37572;52.094;4.870;2023-04-24T04:24:21;99955.91;;;13.81;60.13
51496;BME280;37572;52.094;4.870;2023-04-24T04:26:47;99955.72;;;13.82;60.08
51496;BME280;37572;52.094;4.870;2023-04-24T04:29:17;99966.00;;;13.85;60.37
51496;BME280;37572;52.094;4.870;2023-04-24T04:31:43;99963.78;;;13.89;59.96
51496;BME280;37572;52.094;4.870;2023-04-24T04:34:09;99970.13;;;13.88;59.84
51496;BME280;37572;52.094;4.870;2023-04-24T04:36:34;99977.34;;;13.87;59.89
51496;BME280;37572;52.094;4.870;2023-04-24T04:39:02;99978.56;;;13.85;59.79
51496;BME280;37572;52.094;4.870;2023-04-24T04:41:28;99984.31;;;13.82;59.92
51496;BME280;37572;52.094;4.870;2023-04-24T04:43:53;99985.72;;;13.78;60.09
51496;BME280;37572;52.094;4.870;2023-04-24T04:46:18;99992.28;;;13.75;60.07
51496;BME280;37572;52.094;4.870;2023-04-24T04:48:44;99998.88;;;13.73;59.83
51496;BME280;37572;52.094;4.870;2023-04-24T04:51:09;100000.09;;;13.70;60.05
51496;BME280;37572;52.094;4.870;2023-04-24T04:53:35;99999.25;;;13.69;60.12
51496;BME280;37572;52.094;4.870;2023-04-24T04:56:00;100006.00;;;13.65;60.09
51496;BME280;37572;52.094;4.870;2023-04-24T04:58:25;100005.38;;;13.63;60.04
51496;BME280;37572;52.094;4.870;2023-04-24T05:00:51;100008.66;;;13.59;60.10
51496;BME280;37572;52.094;4.870;2023-04-24T05:03:17;100010.88;;;13.55;60.07
51496;BME280;37572;52.094;4.870;2023-04-24T05:05:43;100012.75;;;13.55;60.15
51496;BME280;37572;52.094;4.870;2023-04-24T05:08:08;100021.16;;;13.51;60.14
51496;BME280;37572;52.094;4.870;2023-04-24T05:10:33;100023.41;;;13.48;60.17
51496;BME280;37572;52.094;4.870;2023-04-24T05:12:59;100030.78;;;13.46;60.24
51496;BME280;37572;52.094;4.870;2023-04-24T05:15:24;100028.31;;;13.44;60.19
51496;BME280;37572;52.094;4.870;2023-04-24T05:17:49;100043.50;;;13.44;60.29
51496;BME280;37572;52.094;4.870;2023-04-24T05:20:15;100044.94;;;13.40;60.34
51496;BME280;37572;52.094;4.870;2023-04-24T05:22:41;100053.97;;;13.39;60.15
51496;BME280;37572;52.094;4.870;2023-04-24T05:25:07;100055.00;;;13.38;60.24
51496;BME280;37572;52.094;4.870;2023-04-24T05:27:32;100059.72;;;13.36;60.35
51496;BME280;37572;52.094;4.870;2023-04-24T05:29:58;100069.38;;;13.37;60.33
51496;BME280;37572;52.094;4.870;2023-04-24T05:32:23;100071.66;;;13.40;60.36
51496;BME280;37572;52.094;4.870;2023-04-24T05:34:48;100083.00;;;13.42;60.39
51496;BME280;37572;52.094;4.870;2023-04-24T05:37:14;100086.31;;;13.44;60.30
51496;BME280;37572;52.094;4.870;2023-04-24T05:39:39;100086.31;;;13.44;60.45
51496;BME280;37572;52.094;4.870;2023-04-24T05:42:06;100093.13;;;13.46;60.33
51496;BME280;37572;52.094;4.870;2023-04-24T05:44:31;100103.81;;;13.46;60.67
51496;BME280;37572;52.094;4.870;2023-04-24T05:46:56;100111.66;;;13.48;60.15
51496;BME280;37572;52.094;4.870;2023-04-24T05:49:22;100121.72;;;13.46;60.36
51496;BME280;37572;52.094;4.870;2023-04-24T05:51:48;100137.13;;;13.44;60.45
51496;BME280;37572;52.094;4.870;2023-04-24T05:54:13;100135.84;;;13.40;60.67
51496;BME280;37572;52.094;4.870;2023-04-24T05:56:39;100148.78;;;13.36;60.41
51496;BME280;37572;52.094;4.870;2023-04-24T05:59:04;100165.00;;;13.35;60.40
51496;BME280;37572;52.094;4.870;2023-04-24T06:01:30;100163.53;;;13.32;60.23
51496;BME280;37572;52.094;4.870;2023-04-24T06:03:56;100166.59;;;13.29;60.51
51496;BME280;37572;52.094;4.870;2023-04-24T06:06:21;100178.47;;;13.26;60.22
51496;BME280;37572;52.094;4.870;2023-04-24T06:08:47;100186.88;;;13.23;60.48
51496;BME280;37572;52.094;4.870;2023-04-24T06:11:12;100196.75;;;13.23;60.46
51496;BME280;37572;52.094;4.870;2023-04-24T06:13:37;100206.81;;;13.21;60.48
51496;BME280;37572;52.094;4.870;2023-04-24T06:16:04;100205.94;;;13.20;60.49
51496;BME280;37572;52.094;4.870;2023-04-24T06:18:30;100213.72;;;13.15;60.50
51496;BME280;37572;52.094;4.870;2023-04-24T06:20:55;100225.44;;;13.14;60.47
51496;BME280;37572;52.094;4.870;2023-04-24T06:23:21;100226.44;;;13.13;60.77
51496;BME280;37572;52.094;4.870;2023-04-24T06:25:46;100232.59;;;13.13;60.71
51496;BME280;37572;52.094;4.870;2023-04-24T06:28:12;100239.81;;;13.13;60.61
51496;BME280;37572;52.094;4.870;2023-04-24T06:30:37;100247.81;;;13.13;60.58
51496;BME280;37572;52.094;4.870;2023-04-24T06:33:02;100249.69;;;13.12;60.37
51496;BME280;37572;52.094;4.870;2023-04-24T06:35:28;100258.53;;;13.13;60.38
51496;BME280;37572;52.094;4.870;2023-04-24T06:37:53;100273.75;;;13.12;60.50
51496;BME280;37572;52.094;4.870;2023-04-24T06:40:18;100270.22;;;13.12;60.52
51496;BME280;37572;52.094;4.870;2023-04-24T06:42:44;100279.91;;;13.13;60.48
51496;BME280;37572;52.094;4.870;2023-04-24T06:45:09;100290.59;;;13.13;60.31
51496;BME280;37572;52.094;4.870;2023-04-24T06:47:35;100287.28;;;13.11;60.59
51496;BME280;37572;52.094;4.870;2023-04-24T06:50:00;100289.97;;;13.11;60.56
51496;BME280;37572;52.094;4.870;2023-04-24T06:52:26;100304.16;;;13.11;60.70
51496;BME280;37572;52.094;4.870;2023-04-24T06:54:51;100311.97;;;13.13;60.58
51496;BME280;37572;52.094;4.870;2023-04-24T06:57:17;100313.66;;;13.14;60.64
51496;BME280;37572;52.094;4.870;2023-04-24T06:59:42;100318.81;;;13.16;60.48
51496;BME280;37572;52.094;4.870;2023-04-24T07:02:08;100321.28;;;13.17;60.60
51496;BME280;37572;52.094;4.870;2023-04-24T07:04:33;100329.97;;;13.19;60.31
51496;BME280;37572;52.094;4.870;2023-04-24T07:06:59;100334.28;;;13.20;60.65
51496;BME280;37572;52.094;4.870;2023-04-24T07:09:25;100333.09;;;13.23;60.48
51496;BME280;37572;52.094;4.870;2023-04-24T07:11:51;100332.72;;;13.26;60.60
51496;BME280;37572;52.094;4.870;2023-04-24T07:14:17;100346.75;;;13.28;60.31
51496;BME280;37572;52.094;4.870;2023-04-24T07:16:43;100354.56;;;13.29;60.44
51496;BME280;37572;52.094;4.870;2023-04-24T07:19:09;100355.22;;;13.31;60.38
51496;BME280;37572;52.094;4.870;2023-04-24T07:21:34;100355.06;;;13.33;60.42
51496;BME280;37572;52.094;4.870;2023-04-24T07:23:59;100355.69;;;13.35;60.17
51496;BME280;37572;52.094;4.870;2023-04-24T07:26:26;100368.06;;;13.36;60.17
51496;BME280;37572;52.094;4.870;2023-04-24T07:28:51;100372.59;;;13.36;60.43
51496;BME280;37572;52.094;4.870;2023-04-24T07:31:17;100378.94;;;13.35;60.06
51496;BME280;37572;52.094;4.870;2023-04-24T07:33:42;100384.47;;;13.33;60.26
51496;BME280;37572;52.094;4.870;2023-04-24T07:36:07;100390.97;;;13.30;60.25
51496;BME280;37572;52.094;4.870;2023-04-24T07:38:33;100398.00;;;13.31;60.15
51496;BME280;37572;52.094;4.870;2023-04-24T07:40:58;100398.66;;;13.33;60.02
51496;BME280;37572;52.094;4.870;2023-04-24T07:43:23;100402.19;;;13.34;60.12
51496;BME280;37572;52.094;4.870;2023-04-24T07:45:50;100419.69;;;13.37;60.07
51496;BME280;37572;52.094;4.870;2023-04-24T07:48:16;100422.00;;;13.40;60.14
51496;BME280;37572;52.094;4.870;2023-04-24T07:50:43;100432.34;;;13.43;59.90
51496;BME280;37572;52.094;4.870;2023-04-24T07:53:08;100428.28;;;13.47;59.96
51496;BME280;37572;52.094;4.870;2023-04-24T07:55:33;100434.75;;;13.53;59.86
51496;BME280;37572;52.094;4.870;2023-04-24T07:57:59;100452.25;;;13.55;59.61
51496;BME280;37572;52.094;4.870;2023-04-24T08:00:24;100438.88;;;13.55;59.34
51496;BME280;37572;52.094;4.870;2023-04-24T08:02:49;100447.94;;;13.54;59.20
51496;BME280;37572;52.094;4.870;2023-04-24T08:05:15;100460.66;;;13.52;58.61
51496;BME280;37572;52.094;4.870;2023-04-24T08:07:40;100459.00;;;13.51;58.90
51496;BME280;37572;52.094;4.870;2023-04-24T08:10:09;100468.50;;;13.54;58.66
51496;BME280;37572;52.094;4.870;2023-04-24T08:12:35;100470.97;;;13.55;58.51
51496;BME280;37572;52.094;4.870;2023-04-24T08:15:00;100483.19;;;13.58;58.70
51496;BME280;37572;52.094;4.870;2023-04-24T08:17:25;100479.47;;;13.59;58.54
51496;BME280;37572;52.094;4.870;2023-04-24T08:19:51;100481.13;;;13.60;58.41
51496;BME280;37572;52.094;4.870;2023-04-24T08:22:18;100501.53;;;13.61;58.34
51496;BME280;37572;52.094;4.870;2023-04-24T08:24:43;100497.84;;;13.62;58.22
51496;BME280;37572;52.094;4.870;2023-04-24T08:27:09;100502.19;;;13.63;58.27
51496;BME280;37572;52.094;4.870;2023-04-24T08:29:35;100512.88;;;13.63;58.30
51496;BME280;37572;52.094;4.870;2023-04-24T08:32:01;100518.69;;;13.66;58.10
51496;BME280;37572;52.094;4.870;2023-04-24T08:34:26;100520.38;;;13.67;57.79
51496;BME280;37572;52.094;4.870;2023-04-24T08:36:51;100529.22;;;13.68;57.71
51496;BME280;37572;52.094;4.870;2023-04-24T08:39:17;100530.22;;;13.67;57.58
51496;BME280;37572;52.094;4.870;2023-04-24T08:41:43;100532.06;;;13.66;57.22
51496;BME280;37572;52.094;4.870;2023-04-24T08:44:11;100527.94;;;13.64;57.09
51496;BME280;37572;52.094;4.870;2023-04-24T08:46:37;100543.13;;;13.63;56.85
51496;BME280;37572;52.094;4.870;2023-04-24T08:49:04;100538.63;;;13.64;56.87
51496;BME280;37572;52.094;4.870;2023-04-24T08:51:31;100545.28;;;13.68;57.11
51496;BME280;37572;52.094;4.870;2023-04-24T08:53:57;100554.78;;;13.71;56.62
51496;BME280;37572;52.094;4.870;2023-04-24T08:56:23;100556.25;;;13.73;56.55
51496;BME280;37572;52.094;4.870;2023-04-24T08:58:50;100555.53;;;13.79;56.56
51496;BME280;37572;52.094;4.870;2023-04-24T09:01:17;100557.28;;;13.87;56.51
51496;BME280;37572;52.094;4.870;2023-04-24T09:03:43;100557.75;;;13.91;55.68
51496;BME280;37572;52.094;4.870;2023-04-24T09:06:10;100570.75;;;13.94;55.44
51496;BME280;37572;52.094;4.870;2023-04-24T09:08:36;100568.75;;;13.96;55.17
51496;BME280;37572;52.094;4.870;2023-04-24T09:11:03;100572.88;;;13.98;55.17
51496;BME280;37572;52.094;4.870;2023-04-24T09:13:30;100578.88;;;14.00;54.55
51496;BME280;37572;52.094;4.870;2023-04-24T09:15:55;100574.56;;;13.99;54.20
51496;BME280;37572;52.094;4.870;2023-04-24T09:18:22;100565.03;;;13.97;54.26
51496;BME280;37572;52.094;4.870;2023-04-24T09:21:06;100583.31;;;13.93;54.12
51496;BME280;37572;52.094;4.870;2023-04-24T09:23:32;100586.53;;;13.88;54.04
51496;BME280;37572;52.094;4.870;2023-04-24T09:25:58;100589.56;;;13.85;54.22
51496;BME280;37572;52.094;4.870;2023-04-24T09:28:30;100595.13;;;13.84;54.46
51496;BME280;37572;52.094;4.870;2023-04-24T09:31:05;100601.94;;;13.86;54.55
51496;BME280;37572;52.094;4.870;2023-04-24T09:33:31;100602.41;;;13.90;54.33
51496;BME280;37572;52.094;4.870;2023-04-24T09:35:57;100608.22;;;13.94;54.35
51496;BME280;37572;52.094;4.870;2023-04-24T09:38:37;100609.63;;;13.90;54.29
51496;BME280;37572;52.094;4.870;2023-04-24T09:41:05;100608.13;;;13.87;54.28
51496;BME280;37572;52.094;4.870;2023-04-24T09:43:31;100626.84;;;13.87;54.22
51496;BME280;37572;52.094;4.870;2023-04-24T09:45:58;100626.22;;;13.85;54.24
51496;BME280;37572;52.094;4.870;2023-04-24T09:48:34;100623.91;;;13.82;54.32
51496;BME280;37572;52.094;4.870;2023-04-24T09:51:01;100632.78;;;13.82;54.31
51496;BME280;37572;52.094;4.870;2023-04-24T09:53:27;100635.47;;;13.82;54.38
51496;BME280;37572;52.094;4.870;2023-04-24T09:55:52;100632.59;;;13.84;54.50
51496;BME280;37572;52.094;4.870;2023-04-24T09:58:18;100644.59;;;13.88;54.81
51496;BME280;37572;52.094;4.870;2023-04-24T10:00:49;100650.22;;;13.93;55.06
51496;BME280;37572;52.094;4.870;2023-04-24T10:03:17;100650.78;;;14.03;55.29
51496;BME280;37572;52.094;4.870;2023-04-24T10:05:46;100660.06;;;14.16;55.33
51496;BME280;37572;52.094;4.870;2023-04-24T10:08:12;100658.75;;;14.27;55.43
51496;BME280;37572;52.094;4.870;2023-04-24T10:10:45;100664.03;;;14.35;54.83
51496;BME280;37572;52.094;4.870;2023-04-24T10:13:13;100670.22;;;14.35;54.28
51496;BME280;37572;52.094;4.870;2023-04-24T10:15:41;100663.56;;;14.31;54.39
51496;BME280;37572;52.094;4.870;2023-04-24T10:18:08;100671.34;;;14.26;54.46
51496;BME280;37572;52.094;4.870;2023-04-24T10:20:35;100667.16;;;14.23;54.82
51496;BME280;37572;52.094;4.870;2023-04-24T10:23:01;100665.34;;;14.24;54.76
51496;BME280;37572;52.094;4.870;2023-04-24T10:25:28;100659.41;;;14.29;54.94
51496;BME280;37572;52.094;4.870;2023-04-24T10:27:54;100662.25;;;14.42;54.85
51496;BME280;37572;52.094;4.870;2023-04-24T10:30:26;100671.91;;;14.66;55.02
51496;BME280;37572;52.094;4.870;2023-04-24T10:32:51;100670.47;;;14.85;53.82
51496;BME280;37572;52.094;4.870;2023-04-24T10:35:17;100676.84;;;14.99;53.32
51496;BME280;37572;52.094;4.870;2023-04-24T10:37:51;100671.28;;;15.15;52.82
51496;BME280;37572;52.094;4.870;2023-04-24T10:40:25;100673.06;;;15.30;52.48
51496;BME280;37572;52.094;4.870;2023-04-24T10:42:52;100673.19;;;15.43;52.00
51496;BME280;37572;52.094;4.870;2023-04-24T10:45:20;100675.75;;;15.51;51.63
51496;BME280;37572;52.094;4.870;2023-04-24T10:47:53;100683.66;;;15.60;51.61
51496;BME280;37572;52.094;4.870;2023-04-24T10:50:18;100692.22;;;15.70;51.70
51496;BME280;37572;52.094;4.870;2023-04-24T10:52:48;100688.44;;;15.79;51.16
51496;BME280;37572;52.094;4.870;2023-04-24T10:55:15;100694.53;;;15.95;51.54
51496;BME280;37572;52.094;4.870;2023-04-24T10:58:03;100703.13;;;16.12;51.24
51496;BME280;37572;52.094;4.870;2023-04-24T11:00:29;100698.72;;;16.25;50.91
51496;BME280;37572;52.094;4.870;2023-04-24T11:02:55;100689.22;;;16.30;50.24
51496;BME280;37572;52.094;4.870;2023-04-24T11:05:21;100703.13;;;16.40;50.32
51496;BME280;37572;52.094;4.870;2023-04-24T11:08:15;100717.22;;;16.49;50.13
51496;BME280;37572;52.094;4.870;2023-04-24T11:10:45;100717.59;;;16.39;49.90
51496;BME280;37572;52.094;4.870;2023-04-24T11:13:15;100719.34;;;16.25;50.07
51496;BME280;37572;52.094;4.870;2023-04-24T11:15:41;100719.44;;;16.10;49.92
51496;BME280;37572;52.094;4.870;2023-04-24T11:18:13;100727.13;;;15.91;49.90
51496;BME280;37572;52.094;4.870;2023-04-24T11:20:41;100739.97;;;15.75;49.93
51496;BME280;37572;52.094;4.870;2023-04-24T11:23:07;100728.91;;;15.63;50.34
51496;BME280;37572;52.094;4.870;2023-04-24T11:25:35;100742.09;;;15.58;50.73
51496;BME280;37572;52.094;4.870;2023-04-24T11:28:04;100734.97;;;15.50;50.22
51496;BME280;37572;52.094;4.870;2023-04-24T11:30:32;100749.53;;;15.41;49.92
51496;BME280;37572;52.094;4.870;2023-04-24T11:33:05;100744.03;;;15.27;50.34
51496;BME280;37572;52.094;4.870;2023-04-24T11:35:35;100745.97;;;15.18;50.58
51496;BME280;37572;52.094;4.870;2023-04-24T11:38:02;100746.75;;;15.12;50.70
51496;BME280;37572;52.094;4.870;2023-04-24T11:40:28;100747.56;;;15.13;50.99
51496;BME280;37572;52.094;4.870;2023-04-24T11:42:53;100760.03;;;15.21;51.29
51496;BME280;37572;52.094;4.870;2023-04-24T11:45:28;100756.47;;;15.35;50.96
51496;BME280;37572;52.094;4.870;2023-04-24T11:47:54;100765.06;;;15.45;50.28
51496;BME280;37572;52.094;4.870;2023-04-24T11:50:22;100773.19;;;15.52;50.13
51496;BME280;37572;52.094;4.870;2023-04-24T11:52:49;100770.38;;;15.60;50.13
51496;BME280;37572;52.094;4.870;2023-04-24T11:57:48;100776.84;;;15.81;50.03
51496;BME280;37572;52.094;4.870;2023-04-24T12:02:42;100779.19;;;15.90;49.84
51496;BME280;37572;52.094;4.870;2023-04-24T12:05:08;100783.91;;;15.88;49.73
51496;BME280;37572;52.094;4.870;2023-04-24T12:07:41;100783.66;;;15.83;49.55
51496;BME280;37572;52.094;4.870;2023-04-24T12:10:10;100780.91;;;15.77;49.32
51496;BME280;37572;52.094;4.870;2023-04-24T12:12:35;100787.03;;;15.70;49.75
51496;BME280;37572;52.094;4.870;2023-04-24T12:15:06;100785.28;;;15.63;49.29
51496;BME280;37572;52.094;4.870;2023-04-24T12:17:33;100800.69;;;15.54;49.29
51496;BME280;37572;52.094;4.870;2023-04-24T12:20:06;100800.22;;;15.50;49.44
51496;BME280;37572;52.094;4.870;2023-04-24T12:22:52;100801.59;;;15.46;48.96
51496;BME280;37572;52.094;4.870;2023-04-24T12:25:22;100813.34;;;15.45;49.04
51496;BME280;37572;52.094;4.870;2023-04-24T12:27:55;100813.66;;;15.50;48.94
51496;BME280;37572;52.094;4.870;2023-04-24T12:30:43;100817.16;;;15.51;48.89
51496;BME280;37572;52.094;4.870;2023-04-24T12:33:17;100823.72;;;15.48;48.82
51496;BME280;37572;52.094;4.870;2023-04-24T12:35:42;100831.22;;;15.38;48.69
51496;BME280;37572;52.094;4.870;2023-04-24T12:38:09;100829.38;;;15.24;48.78
51496;BME280;37572;52.094;4.870;2023-04-24T12:40:35;100829.22;;;15.10;48.83
51496;BME280;37572;52.094;4.870;2023-04-24T12:43:01;100829.50;;;15.01;49.39
51496;BME280;37572;52.094;4.870;2023-04-24T12:45:26;100836.88;;;14.98;49.54
51496;BME280;37572;52.094;4.870;2023-04-24T12:47:53;100828.56;;;15.08;50.15
51496;BME280;37572;52.094;4.870;2023-04-24T12:50:18;100837.41;;;15.53;50.76
51496;BME280;37572;52.094;4.870;2023-04-24T12:52:44;100834.50;;;16.28;50.45
51496;BME280;37572;52.094;4.870;2023-04-24T12:55:10;100824.53;;;17.07;50.18
51496;BME280;37572;52.094;4.870;2023-04-24T12:57:38;100823.25;;;17.99;49.39